Flight Track Log - Related Links

Times and Time Zones

All times are in EDT time to prevent confusion due to time zone crossing. See the SWA4204 flight status page for this flight to view local times or setup timezone preferences in your user account.

Time Position Orientation Groundspeed Altitude Reporting Facility
EDT Latitude Longitude Course Direction KTS MPH feet Rate Location/Type
Fri 07:09:33 AM 42.9500 -71.4167 20° North 156 180 1,000  Level KA90
Fri 07:10:09 AM 42.9833 -71.4000 20° North 176 203 2,500 2,687 Climbing KA90
Fri 07:10:40 AM 42.9978 -71.3869 33° Northeast 230 265 4,000 2,804 Climbing Boston Center
Fri 07:11:41 AM 43.0178 -71.2986 73° East 260 299 6,800 3,200 Climbing Boston Center
Fri 07:12:40 AM 43.0417 -71.1986 72° East 272 313 10,400 2,800 Climbing Boston Center
Fri 07:13:41 AM 43.0656 -71.0931 73° East 299 344 12,400 2,826 Climbing Boston Center
Fri 07:14:41 AM 43.0617 -70.9539 92° East 327 376 16,100 2,850 Climbing Boston Center
Fri 07:15:41 AM 42.9736 -70.9019 157° South 286 329 18,100 2,847 Climbing Boston Center
Fri 07:16:39 AM 42.8575 -70.9475 196° South 334 384 21,700 3,126 Climbing Boston Center
Fri 07:17:40 AM 42.7583 -71.0092 205° Southwest 369 425 24,300 2,115 Climbing Boston Center
Fri 07:18:41 AM 42.6825 -71.1353 231° Southwest 384 442 26,000 1,736 Climbing Boston Center
Fri 07:19:41 AM 42.6089 -71.2667 233° Southwest 411 473 27,800 1,850 Climbing Boston Center
Fri 07:20:41 AM 42.5333 -71.4061 234° Southwest 446 513 29,700 1,950 Climbing Boston Center
Fri 07:21:41 AM 42.4572 -71.5453 233° Southwest 458 527 31,700 1,850 Climbing Boston Center
Fri 07:22:41 AM 42.3853 -71.6614 230° Southwest 463 533 33,400 1,613 Climbing Boston Center
Fri 07:23:40 AM 42.3089 -71.7972 233° Southwest 463 533 34,900 1,462 Climbing Boston Center
Fri 07:24:40 AM 42.2325 -71.9325 233° Southwest 463 533 36,300 1,300 Climbing Boston Center
Fri 07:25:40 AM 42.1558 -72.0703 233° Southwest 463 533 37,500 850 Climbing Boston Center
Fri 07:26:40 AM 42.0792 -72.2053 233° Southwest 463 533 38,000 250 Climbing Boston Center
Fri 07:27:40 AM 42.0044 -72.3367 233° Southwest 463 533 38,000  Level Boston Center
Fri 07:28:42 AM 41.9272 -72.4708 232° Southwest 463 533 38,000  Level Boston Center
Fri 07:29:42 AM 41.8522 -72.6017 232° Southwest 458 527 38,000  Level Boston Center
Fri 07:30:41 AM 41.7728 -72.7350 231° Southwest 460 529 38,000  Level Boston Center
Fri 07:31:41 AM 41.6953 -72.8711 233° Southwest 465 535 38,000  Level Boston Center
Fri 07:32:42 AM 41.6175 -73.0067 233° Southwest 465 535 38,000  Level Boston Center
Fri 07:33:40 AM 41.5333 -73.1528 232° Southwest 465 535 38,000  Level Boston Center
Fri 07:34:41 AM 41.4594 -73.2850 233° Southwest 457 526 38,000  Level Boston Center
Fri 07:35:41 AM 41.3792 -73.4194 232° Southwest 457 526 38,000  Level Boston Center
Fri 07:37:49 AM 41.2125 -73.7058 232° Southwest 457 526 38,000  Level New York Center
Fri 07:38:49 AM 41.1344 -73.8344 231° Southwest 457 526 38,000  Level New York Center
Fri 07:39:49 AM 41.0558 -73.9686 232° Southwest 457 526 38,000  Level New York Center
Fri 07:40:50 AM 40.9772 -74.0994 232° Southwest 457 526 38,000  Level New York Center
Fri 07:41:48 AM 40.8944 -74.2272 229° Southwest 457 526 38,000  Level New York Center
Fri 07:42:48 AM 40.8156 -74.3575 231° Southwest 457 526 38,000  Level New York Center
Fri 07:43:49 AM 40.7386 -74.4847 231° Southwest 457 526 38,000  Level New York Center
Fri 07:44:49 AM 40.6572 -74.6172 231° Southwest 457 526 38,000  Level New York Center
Fri 07:45:50 AM 40.5778 -74.7494 232° Southwest 462 532 38,000  Level New York Center
Fri 07:46:48 AM 40.4944 -74.8700 228° Southwest 462 532 38,000  Level New York Center
Fri 07:47:50 AM 40.4092 -74.9903 227° Southwest 462 532 38,000  Level New York Center
Fri 07:48:50 AM 40.3211 -75.1131 227° Southwest 462 532 38,000  Level New York Center
Fri 07:49:48 AM 40.2353 -75.2353 227° Southwest 457 526 38,000  Level New York Center
Fri 07:50:49 AM 40.1514 -75.3578 228° Southwest 457 526 38,000  Level New York Center
Fri 07:51:50 AM 40.0722 -75.4636 226° Southwest 457 526 38,000  Level New York Center
Fri 07:52:48 AM 39.9861 -75.5825 227° Southwest 457 526 38,000  Level New York Center
Fri 07:53:48 AM 39.9019 -75.7039 228° Southwest 452 520 38,000  Level New York Center
Fri 07:54:48 AM 39.8258 -75.8283 231° Southwest 447 514 38,000  Level New York Center
Fri 07:55:49 AM 39.7475 -75.9522 231° Southwest 447 514 38,000  Level New York Center
Fri 07:56:50 AM 39.6669 -76.0731 229° Southwest 452 520 38,000  Level New York Center
Fri 07:59:16 AM 39.4714 -76.3767 230° Southwest 460 529 38,000  Level Washington Center
Fri 08:00:16 AM 39.3933 -76.5019 231° Southwest 455 524 38,000  Level Washington Center
Fri 08:01:15 AM 39.3028 -76.6375 229° Southwest 455 524 38,000  Level Washington Center
Fri 08:02:16 AM 39.2225 -76.7625 230° Southwest 455 524 38,000  Level Washington Center
Fri 08:03:17 AM 39.1419 -76.8894 231° Southwest 455 524 38,000  Level Washington Center
Fri 08:04:14 AM 39.0592 -77.0192 231° Southwest 455 524 38,000  Level Washington Center
Fri 08:05:16 AM 38.9642 -77.1267 221° Southwest 461 531 38,000  Level Washington Center
Fri 08:06:16 AM 38.8647 -77.2339 220° Southwest 466 536 38,000  Level Washington Center
Fri 08:07:17 AM 38.7653 -77.3436 221° Southwest 466 536 38,000  Level Washington Center
Fri 08:08:17 AM 38.6633 -77.4503 219° Southwest 471 542 38,000  Level Washington Center
Fri 08:09:15 AM 38.5744 -77.5489 221° Southwest 471 542 38,000  Level Washington Center
Fri 08:10:16 AM 38.4767 -77.6575 221° Southwest 471 542 38,000  Level Washington Center
Fri 08:11:14 AM 38.3767 -77.7661 220° Southwest 471 542 38,000  Level Washington Center
Fri 08:12:16 AM 38.2747 -77.8742 220° Southwest 471 542 38,000  Level Washington Center
Fri 08:13:16 AM 38.1744 -77.9822 220° Southwest 471 542 38,000  Level Washington Center
Fri 08:14:17 AM 38.0722 -78.0922 220° Southwest 466 536 38,000  Level Washington Center
Fri 08:15:15 AM 37.9719 -78.1969 219° Southwest 466 536 38,000  Level Washington Center
Fri 08:16:16 AM 37.8653 -78.2986 217° Southwest 476 548 38,000  Level Washington Center
Fri 08:17:17 AM 37.7567 -78.4050 218° Southwest 488 562 38,000  Level Washington Center
Fri 08:18:15 AM 37.6328 -78.5183 216° Southwest 501 577 38,000  Level Washington Center
Fri 08:19:15 AM 37.5217 -78.6242 217° Southwest 501 577 38,000  Level Washington Center
Fri 08:20:14 AM 37.4064 -78.7292 216° Southwest 507 583 38,000  Level Washington Center
Fri 08:21:15 AM 37.2931 -78.8317 216° Southwest 507 583 38,000  Level Washington Center
Fri 08:22:16 AM 37.1797 -78.9364 216° Southwest 507 583 38,000  Level Washington Center
Fri 08:23:18 AM 37.0811 -79.0311 217° Southwest 507 583 38,000  Level Washington Center
Fri 08:24:15 AM 36.9717 -79.1353 217° Southwest 507 583 38,000  Level Washington Center
Fri 08:25:16 AM 36.8581 -79.2367 216° Southwest 507 583 38,000  Level Washington Center
Fri 08:26:17 AM 36.7464 -79.3400 217° Southwest 507 583 38,000  Level Washington Center
Fri 08:27:14 AM 36.6347 -79.4408 216° Southwest 507 583 38,000  Level Washington Center
Fri 08:28:15 AM 36.5119 -79.5511 216° Southwest 507 583 38,000  Level Washington Center
Fri 08:29:15 AM 36.4044 -79.6514 217° Southwest 500 575 38,000  Level Washington Center
Fri 08:30:55 AM 36.2314 -79.8044 216° Southwest 486 559 38,000  Level Atlanta Center
Fri 08:31:55 AM 36.1242 -79.9000 216° Southwest 486 559 38,000  Level Atlanta Center
Fri 08:32:55 AM 35.9936 -79.9914 210° Southwest 491 565 38,000  Level Atlanta Center
Fri 08:33:55 AM 35.8617 -80.0417 197° South 483 556 38,000  Level Atlanta Center
Fri 08:34:55 AM 35.7297 -80.0864 195° South 494 568 38,000  Level Atlanta Center
Fri 08:35:55 AM 35.5956 -80.1311 195° South 509 586 38,000  Level Atlanta Center
Fri 08:36:55 AM 35.4614 -80.1758 195° South 509 586 38,000  Level Atlanta Center
Fri 08:37:55 AM 35.3250 -80.2178 194° South 509 586 38,000  Level Atlanta Center
Fri 08:38:55 AM 35.1950 -80.2619 196° South 503 579 38,000  Level Atlanta Center
Fri 08:40:40 AM 34.9619 -80.3342 194° South 487 560 38,000  Level Jacksonville Center
Fri 08:41:40 AM 34.8231 -80.3789 195° South 487 560 38,000  Level Jacksonville Center
Fri 08:42:40 AM 34.7111 -80.4125 194° South 489 563 38,000  Level Jacksonville Center
Fri 08:43:40 AM 34.5786 -80.4567 195° South 489 563 38,000  Level Jacksonville Center
Fri 08:44:40 AM 34.4481 -80.4981 195° South 489 563 38,000  Level Jacksonville Center
Fri 08:45:40 AM 34.3153 -80.5394 194° South 489 563 38,000  Level Jacksonville Center
Fri 08:46:40 AM 34.1825 -80.5806 194° South 489 563 38,000  Level Jacksonville Center
Fri 08:47:40 AM 34.0497 -80.6219 194° South 489 563 38,000  Level Jacksonville Center
Fri 08:48:40 AM 33.9128 -80.6653 195° South 489 563 38,000  Level Jacksonville Center
Fri 08:49:40 AM 33.7819 -80.7036 194° South 489 563 38,000  Level Jacksonville Center
Fri 08:50:40 AM 33.6467 -80.7294 189° South 489 563 38,000  Level Jacksonville Center
Fri 08:51:40 AM 33.5136 -80.7578 190° South 484 557 38,000  Level Jacksonville Center
Fri 08:52:40 AM 33.3783 -80.7833 189° South 489 563 38,000  Level Jacksonville Center
Fri 08:53:40 AM 33.2433 -80.8089 189° South 489 563 38,000  Level Jacksonville Center
Fri 08:54:40 AM 33.1081 -80.8367 190° South 489 563 38,000  Level Jacksonville Center
Fri 08:55:40 AM 32.9769 -80.8619 189° South 489 563 38,000  Level Jacksonville Center
Fri 08:56:40 AM 32.8436 -80.8872 189° South 484 557 38,000  Level Jacksonville Center
Fri 08:57:40 AM 32.7106 -80.9125 189° South 484 557 38,000  Level Jacksonville Center
Fri 08:58:40 AM 32.5772 -80.9328 187° South 484 557 38,000  Level Jacksonville Center
Fri 08:59:40 AM 32.4397 -80.9406 183° South 484 557 38,000  Level Jacksonville Center
Fri 09:00:40 AM 32.3019 -80.9458 182° South 489 563 38,000  Level Jacksonville Center
Fri 09:01:40 AM 32.1642 -80.9564 184° South 499 574 38,000  Level Jacksonville Center
Fri 09:02:40 AM 32.0097 -80.9619 182° South 504 580 38,000  Level Jacksonville Center
Fri 09:03:40 AM 31.8806 -80.9694 183° South 509 586 38,000  Level Jacksonville Center
Fri 09:04:40 AM 31.7261 -80.9800 183° South 509 586 38,000  Level Jacksonville Center
Fri 09:05:40 AM 31.5886 -80.9878 183° South 512 589 38,000  Level Jacksonville Center
Fri 09:06:40 AM 31.4656 -80.9953 183° South 505 581 38,000  Level Jacksonville Center
Fri 09:07:40 AM 31.3256 -81.0028 183° South 505 581 38,000  Level Jacksonville Center
Fri 09:08:40 AM 31.1900 -81.0106 183° South 495 570 38,000  Level Jacksonville Center
Fri 09:09:40 AM 31.0525 -81.0181 183° South 495 570 38,000  Level Jacksonville Center
Fri 09:10:40 AM 30.9167 -81.0256 183° South 495 570 38,000 -450 Level Jacksonville Center
Fri 09:11:40 AM 30.7833 -81.0331 183° South 495 570 37,100 -1,850 Descending Jacksonville Center
Fri 09:12:40 AM 30.6478 -81.0406 183° South 490 564 34,300 -1,550 Descending Jacksonville Center
Fri 09:13:40 AM 30.5078 -81.0481 183° South 496 571 34,000 -150 Descending Jacksonville Center
Fri 09:14:40 AM 30.3681 -81.0556 183° South 496 571 34,000  Level Jacksonville Center
Fri 09:15:40 AM 30.2303 -81.0533 179° South 496 571 34,000 -350 Level Jacksonville Center
Fri 09:16:40 AM 30.0883 -81.0514 179° South 496 571 33,300 -1,950 Descending Jacksonville Center
Fri 09:17:40 AM 29.9506 -81.0539 181° South 496 571 30,100 -2,900 Descending Jacksonville Center
Fri 09:18:40 AM 29.8128 -81.0542 180° South 496 571 27,500 -2,550 Descending Jacksonville Center
Fri 09:19:40 AM 29.6792 -81.0567 181° South 491 565 25,000 -2,500 Descending Jacksonville Center
Fri 09:20:40 AM 29.5519 -81.0567 180° South 474 545 22,500 -2,350 Descending Jacksonville Center
Fri 09:21:40 AM 29.4286 -81.0494 177° South 462 532 20,300 -2,200 Descending Jacksonville Center
Fri 09:22:40 AM 29.3097 -81.0542 182° South 442 509 18,100 -2,250 Descending Jacksonville Center
Fri 09:23:40 AM 29.1969 -81.0539 180° South 430 495 15,800 -1,900 Descending Jacksonville Center
Fri 09:24:40 AM 29.0886 -81.0725 189° South 409 471 14,300 -1,250 Descending Jacksonville Center
Fri 09:25:40 AM 28.9825 -81.0911 189° South 396 456 13,300 -1,140 Descending Jacksonville Center
Fri 09:26:41 AM 28.8667 -81.1000 184° South 369 425 12,000 -1,125 Descending Orlando TRACON
Fri 09:27:48 AM 28.7667 -81.1333 196° South 366 421 10,900 -667 Descending Orlando TRACON
Fri 09:28:47 AM 28.6667 -81.1333 180° South 330 380 10,600 -350 Descending Orlando TRACON
Fri 09:29:48 AM 28.5833 -81.1500 190° South 263 303 10,200 -744 Descending Orlando TRACON
Fri 09:30:48 AM 28.5167 -81.1667 192° South 263 303 9,100 -1,000 Descending Orlando TRACON
Fri 09:31:42 AM 28.4500 -81.1833 192° South 254 292 8,300 -1,158 Descending Orlando TRACON
Fri 09:32:42 AM 28.3833 -81.1833 180° South 245 282 6,900 -1,300 Descending Orlando TRACON
Fri 09:33:42 AM 28.3167 -81.1833 180° South 244 281 5,700 -1,500 Descending Orlando TRACON
Fri 09:34:42 AM 28.2500 -81.1833 180° South 235 270 3,900 -1,286 Descending Orlando TRACON
Fri 09:35:48 AM 28.2167 -81.2500 240° Southwest 222 255 3,000 -1,095 Descending Orlando TRACON
Fri 09:36:48 AM 28.2667 -81.2833 330° Northwest 212 244 1,600 -667 Descending Orlando TRACON
Fri 09:37:54 AM 28.3333 -81.2833 360° North 204 235 1,600 -300 Level Orlando TRACON
Fri 09:38:48 AM 28.3667 -81.2833 360° North 130 150 1,000 -632 Descending Orlando TRACON
Fri 09:39:48 AM 28.4000 -81.2833 360° North 128 147 400 -600 Descending Orlando TRACON
Fri 09:41:00 AM 28.4167 -81.3000 336° Northwest  Level FlightAware Approximate
Fri 09:48:00 AM 28.4294 -81.3090 336° Northwest  Level Estimated
Fri 09:49:00 AM 28.4294 -81.3090 336° Northwest  Level Estimated
Fri 09:50:00 AM 28.4294 -81.3090 336° Northwest  Level Estimated
Fri 09:51:00 AM 28.4294 -81.3090 336° Northwest  Level Estimated

Login

Don't have an account? Register now (free) for customized features, flight alerts, and more!